sensor_id;sensor_type;location;lat;lon;timestamp;P1;durP1;ratioP1;P2;durP2;ratioP2
62353;SDS011;48391;49.184;2.418;2022-10-31T00:01:19;2.22;;;1.83;;
62353;SDS011;48391;49.184;2.418;2022-10-31T00:03:46;2.42;;;1.88;;
62353;SDS011;48391;49.184;2.418;2022-10-31T00:06:12;2.13;;;1.75;;
62353;SDS011;48391;49.184;2.418;2022-10-31T00:08:39;1.17;;;1.00;;
62353;SDS011;48391;49.184;2.418;2022-10-31T00:11:08;1.77;;;1.58;;
62353;SDS011;48391;49.184;2.418;2022-10-31T00:13:34;1.80;;;1.70;;
62353;SDS011;48391;49.184;2.418;2022-10-31T00:16:01;2.75;;;2.25;;
62353;SDS011;48391;49.184;2.418;2022-10-31T00:18:27;2.35;;;1.67;;
62353;SDS011;48391;49.184;2.418;2022-10-31T00:21:00;1.58;;;1.48;;
62353;SDS011;48391;49.184;2.418;2022-10-31T00:23:26;2.10;;;1.80;;
62353;SDS011;48391;49.184;2.418;2022-10-31T00:25:52;1.42;;;1.10;;
62353;SDS011;48391;49.184;2.418;2022-10-31T00:28:18;1.92;;;1.70;;
62353;SDS011;48391;49.184;2.418;2022-10-31T00:30:44;5.20;;;2.83;;
62353;SDS011;48391;49.184;2.418;2022-10-31T00:33:10;2.72;;;1.95;;
62353;SDS011;48391;49.184;2.418;2022-10-31T00:35:36;2.50;;;1.60;;
62353;SDS011;48391;49.184;2.418;2022-10-31T00:38:02;2.53;;;1.65;;
62353;SDS011;48391;49.184;2.418;2022-10-31T00:40:28;1.52;;;1.42;;
62353;SDS011;48391;49.184;2.418;2022-10-31T00:42:54;1.98;;;1.80;;
62353;SDS011;48391;49.184;2.418;2022-10-31T00:45:20;2.10;;;1.70;;
62353;SDS011;48391;49.184;2.418;2022-10-31T00:47:46;4.13;;;2.05;;
62353;SDS011;48391;49.184;2.418;2022-10-31T00:50:12;2.35;;;1.88;;
62353;SDS011;48391;49.184;2.418;2022-10-31T00:52:39;1.52;;;1.35;;
62353;SDS011;48391;49.184;2.418;2022-10-31T00:55:05;1.35;;;1.25;;
62353;SDS011;48391;49.184;2.418;2022-10-31T00:57:31;2.13;;;1.60;;
62353;SDS011;48391;49.184;2.418;2022-10-31T00:59:57;2.10;;;1.63;;
62353;SDS011;48391;49.184;2.418;2022-10-31T01:02:25;2.53;;;1.80;;
62353;SDS011;48391;49.184;2.418;2022-10-31T01:04:51;3.10;;;1.92;;
62353;SDS011;48391;49.184;2.418;2022-10-31T01:07:17;1.90;;;1.73;;
62353;SDS011;48391;49.184;2.418;2022-10-31T01:09:44;1.88;;;1.63;;
62353;SDS011;48391;49.184;2.418;2022-10-31T01:12:10;1.40;;;1.30;;
62353;SDS011;48391;49.184;2.418;2022-10-31T01:14:36;2.83;;;1.63;;
62353;SDS011;48391;49.184;2.418;2022-10-31T01:17:02;1.42;;;1.33;;
62353;SDS011;48391;49.184;2.418;2022-10-31T01:19:28;1.83;;;1.38;;
62353;SDS011;48391;49.184;2.418;2022-10-31T01:21:54;1.85;;;1.55;;
62353;SDS011;48391;49.184;2.418;2022-10-31T01:24:20;2.30;;;1.70;;
62353;SDS011;48391;49.184;2.418;2022-10-31T01:26:47;2.00;;;1.90;;
62353;SDS011;48391;49.184;2.418;2022-10-31T01:29:13;1.33;;;1.23;;
62353;SDS011;48391;49.184;2.418;2022-10-31T01:31:39;1.63;;;1.52;;
62353;SDS011;48391;49.184;2.418;2022-10-31T01:34:05;1.75;;;1.27;;
62353;SDS011;48391;49.184;2.418;2022-10-31T01:36:33;1.70;;;1.60;;
62353;SDS011;48391;49.184;2.418;2022-10-31T01:39:00;1.65;;;1.48;;
62353;SDS011;48391;49.184;2.418;2022-10-31T01:41:28;1.42;;;1.33;;
62353;SDS011;48391;49.184;2.418;2022-10-31T01:43:55;2.10;;;1.88;;
62353;SDS011;48391;49.184;2.418;2022-10-31T01:47:08;1.90;;;1.38;;
62353;SDS011;48391;49.184;2.418;2022-10-31T01:49:09;1.13;;;0.90;;
62353;SDS011;48391;49.184;2.418;2022-10-31T01:51:37;1.33;;;1.17;;
62353;SDS011;48391;49.184;2.418;2022-10-31T01:54:06;2.20;;;1.98;;
62353;SDS011;48391;49.184;2.418;2022-10-31T01:56:33;1.52;;;1.30;;
62353;SDS011;48391;49.184;2.418;2022-10-31T01:59:00;1.98;;;1.38;;
62353;SDS011;48391;49.184;2.418;2022-10-31T02:01:27;1.23;;;1.13;;
62353;SDS011;48391;49.184;2.418;2022-10-31T02:03:54;2.65;;;1.30;;
62353;SDS011;48391;49.184;2.418;2022-10-31T02:06:31;1.75;;;1.65;;
62353;SDS011;48391;49.184;2.418;2022-10-31T02:08:58;2.65;;;1.60;;
62353;SDS011;48391;49.184;2.418;2022-10-31T02:11:25;1.90;;;1.80;;
62353;SDS011;48391;49.184;2.418;2022-10-31T02:13:53;1.50;;;1.40;;
62353;SDS011;48391;49.184;2.418;2022-10-31T02:16:20;2.20;;;1.95;;
62353;SDS011;48391;49.184;2.418;2022-10-31T02:18:46;1.30;;;1.20;;
62353;SDS011;48391;49.184;2.418;2022-10-31T02:21:16;1.55;;;1.45;;
62353;SDS011;48391;49.184;2.418;2022-10-31T02:31:54;0.82;;;0.77;;
62353;SDS011;48391;49.184;2.418;2022-10-31T02:34:30;1.08;;;0.98;;
62353;SDS011;48391;49.184;2.418;2022-10-31T02:37:14;2.22;;;1.52;;
62353;SDS011;48391;49.184;2.418;2022-10-31T02:42:16;1.70;;;1.60;;
62353;SDS011;48391;49.184;2.418;2022-10-31T02:47:16;3.05;;;2.22;;
62353;SDS011;48391;49.184;2.418;2022-10-31T02:52:29;2.38;;;2.17;;
62353;SDS011;48391;49.184;2.418;2022-10-31T02:54:55;1.20;;;1.20;;
62353;SDS011;48391;49.184;2.418;2022-10-31T02:57:55;1.50;;;1.20;;
62353;SDS011;48391;49.184;2.418;2022-10-31T03:00:13;1.80;;;1.40;;
62353;SDS011;48391;49.184;2.418;2022-10-31T03:02:48;1.45;;;1.20;;
62353;SDS011;48391;49.184;2.418;2022-10-31T03:07:57;1.70;;;1.60;;
62353;SDS011;48391;49.184;2.418;2022-10-31T03:13:12;1.08;;;1.08;;
62353;SDS011;48391;49.184;2.418;2022-10-31T03:15:43;1.63;;;1.52;;
62353;SDS011;48391;49.184;2.418;2022-10-31T03:23:28;0.93;;;0.93;;
62353;SDS011;48391;49.184;2.418;2022-10-31T03:25:55;1.75;;;1.10;;
62353;SDS011;48391;49.184;2.418;2022-10-31T03:28:23;1.38;;;1.05;;
62353;SDS011;48391;49.184;2.418;2022-10-31T03:30:52;1.50;;;1.10;;
62353;SDS011;48391;49.184;2.418;2022-10-31T03:33:21;0.55;;;0.55;;
62353;SDS011;48391;49.184;2.418;2022-10-31T03:35:48;0.73;;;0.73;;
62353;SDS011;48391;49.184;2.418;2022-10-31T03:38:16;1.00;;;0.85;;
62353;SDS011;48391;49.184;2.418;2022-10-31T03:40:43;0.75;;;0.75;;
62353;SDS011;48391;49.184;2.418;2022-10-31T03:43:12;1.45;;;1.23;;
62353;SDS011;48391;49.184;2.418;2022-10-31T03:45:40;0.85;;;0.85;;
62353;SDS011;48391;49.184;2.418;2022-10-31T03:48:07;1.55;;;0.90;;
62353;SDS011;48391;49.184;2.418;2022-10-31T03:50:38;1.52;;;1.30;;
62353;SDS011;48391;49.184;2.418;2022-10-31T03:53:09;1.88;;;1.33;;
62353;SDS011;48391;49.184;2.418;2022-10-31T03:55:41;1.15;;;1.05;;
62353;SDS011;48391;49.184;2.418;2022-10-31T03:58:10;1.50;;;1.40;;
62353;SDS011;48391;49.184;2.418;2022-10-31T04:00:40;1.45;;;1.35;;
62353;SDS011;48391;49.184;2.418;2022-10-31T04:03:12;1.35;;;1.25;;
62353;SDS011;48391;49.184;2.418;2022-10-31T04:05:40;1.40;;;1.05;;
62353;SDS011;48391;49.184;2.418;2022-10-31T04:08:08;1.13;;;1.00;;
62353;SDS011;48391;49.184;2.418;2022-10-31T04:10:35;0.90;;;0.90;;
62353;SDS011;48391;49.184;2.418;2022-10-31T04:13:11;1.25;;;1.15;;
62353;SDS011;48391;49.184;2.418;2022-10-31T04:15:38;1.02;;;0.80;;
62353;SDS011;48391;49.184;2.418;2022-10-31T04:18:05;1.50;;;1.40;;
62353;SDS011;48391;49.184;2.418;2022-10-31T04:20:32;1.08;;;1.05;;
62353;SDS011;48391;49.184;2.418;2022-10-31T04:22:59;1.25;;;1.13;;
62353;SDS011;48391;49.184;2.418;2022-10-31T04:25:25;0.85;;;0.82;;
62353;SDS011;48391;49.184;2.418;2022-10-31T04:27:52;1.05;;;0.90;;
62353;SDS011;48391;49.184;2.418;2022-10-31T04:30:18;1.15;;;1.05;;
62353;SDS011;48391;49.184;2.418;2022-10-31T04:32:44;1.95;;;1.50;;
62353;SDS011;48391;49.184;2.418;2022-10-31T04:35:10;0.85;;;0.77;;
62353;SDS011;48391;49.184;2.418;2022-10-31T04:37:36;0.68;;;0.68;;
62353;SDS011;48391;49.184;2.418;2022-10-31T04:40:02;1.10;;;0.75;;
62353;SDS011;48391;49.184;2.418;2022-10-31T04:42:29;1.27;;;1.15;;
62353;SDS011;48391;49.184;2.418;2022-10-31T04:44:55;0.90;;;0.82;;
62353;SDS011;48391;49.184;2.418;2022-10-31T04:47:21;2.00;;;1.13;;
62353;SDS011;48391;49.184;2.418;2022-10-31T04:49:47;1.30;;;1.05;;
62353;SDS011;48391;49.184;2.418;2022-10-31T04:52:13;1.13;;;0.95;;
62353;SDS011;48391;49.184;2.418;2022-10-31T04:54:39;1.10;;;1.10;;
62353;SDS011;48391;49.184;2.418;2022-10-31T04:57:05;1.23;;;1.20;;
62353;SDS011;48391;49.184;2.418;2022-10-31T04:59:31;0.60;;;0.60;;
62353;SDS011;48391;49.184;2.418;2022-10-31T05:01:57;1.23;;;1.00;;
62353;SDS011;48391;49.184;2.418;2022-10-31T05:04:23;1.58;;;0.95;;
62353;SDS011;48391;49.184;2.418;2022-10-31T05:06:49;1.63;;;1.35;;
62353;SDS011;48391;49.184;2.418;2022-10-31T05:09:16;1.17;;;1.00;;
62353;SDS011;48391;49.184;2.418;2022-10-31T05:11:42;1.45;;;1.05;;
62353;SDS011;48391;49.184;2.418;2022-10-31T05:14:08;1.23;;;1.13;;
62353;SDS011;48391;49.184;2.418;2022-10-31T05:16:34;1.13;;;0.75;;
62353;SDS011;48391;49.184;2.418;2022-10-31T05:19:00;1.33;;;1.17;;
62353;SDS011;48391;49.184;2.418;2022-10-31T05:21:26;1.65;;;1.38;;
62353;SDS011;48391;49.184;2.418;2022-10-31T05:23:52;1.10;;;0.98;;
62353;SDS011;48391;49.184;2.418;2022-10-31T05:26:18;1.38;;;1.10;;
62353;SDS011;48391;49.184;2.418;2022-10-31T05:28:44;1.85;;;1.10;;
62353;SDS011;48391;49.184;2.418;2022-10-31T05:31:10;0.77;;;0.70;;
62353;SDS011;48391;49.184;2.418;2022-10-31T05:33:36;0.80;;;0.80;;
62353;SDS011;48391;49.184;2.418;2022-10-31T05:36:02;1.98;;;1.00;;
62353;SDS011;48391;49.184;2.418;2022-10-31T05:38:29;1.52;;;0.98;;
62353;SDS011;48391;49.184;2.418;2022-10-31T05:40:55;1.33;;;0.82;;
62353;SDS011;48391;49.184;2.418;2022-10-31T05:43:27;0.75;;;0.75;;
62353;SDS011;48391;49.184;2.418;2022-10-31T05:45:54;0.65;;;0.60;;
62353;SDS011;48391;49.184;2.418;2022-10-31T05:48:20;0.63;;;0.63;;
62353;SDS011;48391;49.184;2.418;2022-10-31T05:50:49;0.95;;;0.82;;
62353;SDS011;48391;49.184;2.418;2022-10-31T05:53:15;0.80;;;0.80;;
62353;SDS011;48391;49.184;2.418;2022-10-31T05:55:42;1.17;;;1.08;;
62353;SDS011;48391;49.184;2.418;2022-10-31T05:58:09;1.25;;;0.57;;
62353;SDS011;48391;49.184;2.418;2022-10-31T06:00:35;1.15;;;1.05;;
62353;SDS011;48391;49.184;2.418;2022-10-31T06:03:05;1.55;;;0.80;;
62353;SDS011;48391;49.184;2.418;2022-10-31T06:05:31;1.30;;;1.10;;
62353;SDS011;48391;49.184;2.418;2022-10-31T06:07:58;1.58;;;0.70;;
62353;SDS011;48391;49.184;2.418;2022-10-31T06:10:24;0.63;;;0.63;;
62353;SDS011;48391;49.184;2.418;2022-10-31T06:12:50;1.92;;;0.77;;
62353;SDS011;48391;49.184;2.418;2022-10-31T06:15:17;2.55;;;2.05;;
62353;SDS011;48391;49.184;2.418;2022-10-31T06:17:43;3.00;;;1.88;;
62353;SDS011;48391;49.184;2.418;2022-10-31T06:20:09;3.20;;;1.95;;
62353;SDS011;48391;49.184;2.418;2022-10-31T06:22:36;1.67;;;1.58;;
62353;SDS011;48391;49.184;2.418;2022-10-31T06:25:02;1.40;;;1.20;;
62353;SDS011;48391;49.184;2.418;2022-10-31T06:27:28;4.80;;;1.27;;
62353;SDS011;48391;49.184;2.418;2022-10-31T06:29:54;1.08;;;0.98;;
62353;SDS011;48391;49.184;2.418;2022-10-31T06:32:20;0.75;;;0.73;;
62353;SDS011;48391;49.184;2.418;2022-10-31T06:34:46;1.15;;;0.75;;
62353;SDS011;48391;49.184;2.418;2022-10-31T06:37:13;1.10;;;1.00;;
62353;SDS011;48391;49.184;2.418;2022-10-31T06:39:39;1.23;;;1.13;;
62353;SDS011;48391;49.184;2.418;2022-10-31T06:42:05;1.15;;;0.70;;
62353;SDS011;48391;49.184;2.418;2022-10-31T06:44:31;1.20;;;1.10;;
62353;SDS011;48391;49.184;2.418;2022-10-31T06:46:57;0.75;;;0.75;;
62353;SDS011;48391;49.184;2.418;2022-10-31T06:49:23;0.93;;;0.80;;
62353;SDS011;48391;49.184;2.418;2022-10-31T06:51:49;0.70;;;0.70;;
62353;SDS011;48391;49.184;2.418;2022-10-31T06:54:16;0.93;;;0.80;;
62353;SDS011;48391;49.184;2.418;2022-10-31T06:56:42;1.52;;;0.68;;
62353;SDS011;48391;49.184;2.418;2022-10-31T06:59:11;1.50;;;1.00;;
62353;SDS011;48391;49.184;2.418;2022-10-31T07:01:37;1.00;;;1.00;;
62353;SDS011;48391;49.184;2.418;2022-10-31T07:04:03;2.28;;;2.08;;
62353;SDS011;48391;49.184;2.418;2022-10-31T07:06:29;2.30;;;2.10;;
62353;SDS011;48391;49.184;2.418;2022-10-31T07:08:55;2.80;;;2.28;;
62353;SDS011;48391;49.184;2.418;2022-10-31T07:11:21;2.10;;;1.90;;
62353;SDS011;48391;49.184;2.418;2022-10-31T07:13:47;3.00;;;2.53;;
62353;SDS011;48391;49.184;2.418;2022-10-31T07:16:13;1.73;;;1.42;;
62353;SDS011;48391;49.184;2.418;2022-10-31T07:18:40;1.52;;;1.42;;
62353;SDS011;48391;49.184;2.418;2022-10-31T07:21:06;1.13;;;1.05;;
62353;SDS011;48391;49.184;2.418;2022-10-31T07:23:32;1.27;;;1.20;;
62353;SDS011;48391;49.184;2.418;2022-10-31T07:25:59;1.38;;;1.27;;
62353;SDS011;48391;49.184;2.418;2022-10-31T07:28:26;0.98;;;0.90;;
62353;SDS011;48391;49.184;2.418;2022-10-31T07:30:53;1.25;;;1.15;;
62353;SDS011;48391;49.184;2.418;2022-10-31T07:33:20;1.33;;;1.23;;
62353;SDS011;48391;49.184;2.418;2022-10-31T07:35:47;2.53;;;2.33;;
62353;SDS011;48391;49.184;2.418;2022-10-31T07:38:13;2.33;;;2.13;;
62353;SDS011;48391;49.184;2.418;2022-10-31T07:40:40;3.60;;;2.40;;
62353;SDS011;48391;49.184;2.418;2022-10-31T07:43:06;1.83;;;1.60;;
62353;SDS011;48391;49.184;2.418;2022-10-31T07:45:32;1.63;;;1.52;;
62353;SDS011;48391;49.184;2.418;2022-10-31T07:47:58;1.70;;;1.48;;
62353;SDS011;48391;49.184;2.418;2022-10-31T07:50:28;3.72;;;1.63;;
62353;SDS011;48391;49.184;2.418;2022-10-31T07:53:00;1.58;;;1.48;;
62353;SDS011;48391;49.184;2.418;2022-10-31T07:55:27;1.98;;;1.83;;
62353;SDS011;48391;49.184;2.418;2022-10-31T07:57:56;5.47;;;1.67;;
62353;SDS011;48391;49.184;2.418;2022-10-31T08:00:23;1.23;;;1.13;;
62353;SDS011;48391;49.184;2.418;2022-10-31T08:02:55;2.25;;;1.10;;
62353;SDS011;48391;49.184;2.418;2022-10-31T08:05:22;1.42;;;1.33;;
62353;SDS011;48391;49.184;2.418;2022-10-31T08:07:48;0.80;;;0.80;;
62353;SDS011;48391;49.184;2.418;2022-10-31T08:10:14;0.90;;;0.90;;
62353;SDS011;48391;49.184;2.418;2022-10-31T08:12:40;5.18;;;1.23;;
62353;SDS011;48391;49.184;2.418;2022-10-31T08:15:06;1.48;;;1.10;;
62353;SDS011;48391;49.184;2.418;2022-10-31T08:17:34;2.28;;;1.33;;
62353;SDS011;48391;49.184;2.418;2022-10-31T08:20:00;2.17;;;1.45;;
62353;SDS011;48391;49.184;2.418;2022-10-31T08:22:26;2.80;;;2.50;;
62353;SDS011;48391;49.184;2.418;2022-10-31T08:24:52;3.63;;;2.65;;
62353;SDS011;48391;49.184;2.418;2022-10-31T08:27:18;2.35;;;2.00;;
62353;SDS011;48391;49.184;2.418;2022-10-31T08:29:44;2.95;;;2.35;;
62353;SDS011;48391;49.184;2.418;2022-10-31T08:32:10;3.28;;;2.97;;
62353;SDS011;48391;49.184;2.418;2022-10-31T08:34:36;4.45;;;2.90;;
62353;SDS011;48391;49.184;2.418;2022-10-31T08:37:02;4.70;;;3.17;;
62353;SDS011;48391;49.184;2.418;2022-10-31T08:39:28;5.85;;;5.13;;
62353;SDS011;48391;49.184;2.418;2022-10-31T08:41:54;5.63;;;4.20;;
62353;SDS011;48391;49.184;2.418;2022-10-31T08:44:20;6.05;;;3.63;;
62353;SDS011;48391;49.184;2.418;2022-10-31T08:46:46;5.10;;;3.63;;
62353;SDS011;48391;49.184;2.418;2022-10-31T08:49:12;5.15;;;3.35;;
62353;SDS011;48391;49.184;2.418;2022-10-31T08:51:38;2.13;;;1.92;;
62353;SDS011;48391;49.184;2.418;2022-10-31T08:54:04;2.67;;;2.03;;
62353;SDS011;48391;49.184;2.418;2022-10-31T08:56:30;4.18;;;2.45;;
62353;SDS011;48391;49.184;2.418;2022-10-31T08:58:57;2.78;;;2.55;;
62353;SDS011;48391;49.184;2.418;2022-10-31T09:01:23;3.28;;;2.80;;
62353;SDS011;48391;49.184;2.418;2022-10-31T09:03:49;3.63;;;2.72;;
62353;SDS011;48391;49.184;2.418;2022-10-31T09:06:15;7.43;;;3.55;;
62353;SDS011;48391;49.184;2.418;2022-10-31T09:08:41;4.22;;;3.22;;
62353;SDS011;48391;49.184;2.418;2022-10-31T09:11:07;2.97;;;2.67;;
62353;SDS011;48391;49.184;2.418;2022-10-31T09:13:33;3.05;;;2.85;;
62353;SDS011;48391;49.184;2.418;2022-10-31T09:15:59;2.60;;;2.40;;
62353;SDS011;48391;49.184;2.418;2022-10-31T09:18:25;2.70;;;2.08;;
62353;SDS011;48391;49.184;2.418;2022-10-31T09:20:56;2.40;;;2.20;;
62353;SDS011;48391;49.184;2.418;2022-10-31T09:23:23;2.33;;;1.70;;
62353;SDS011;48391;49.184;2.418;2022-10-31T09:25:49;2.03;;;1.90;;
62353;SDS011;48391;49.184;2.418;2022-10-31T09:28:17;5.70;;;2.85;;
62353;SDS011;48391;49.184;2.418;2022-10-31T09:30:45;3.80;;;3.00;;
62353;SDS011;48391;49.184;2.418;2022-10-31T09:33:11;2.88;;;2.67;;
62353;SDS011;48391;49.184;2.418;2022-10-31T09:35:38;3.60;;;2.80;;
62353;SDS011;48391;49.184;2.418;2022-10-31T09:38:17;3.22;;;2.92;;
62353;SDS011;48391;49.184;2.418;2022-10-31T09:43:14;2.28;;;1.42;;
62353;SDS011;48391;49.184;2.418;2022-10-31T09:48:25;1.35;;;1.20;;
62353;SDS011;48391;49.184;2.418;2022-10-31T09:53:41;5.80;;;3.72;;
62353;SDS011;48391;49.184;2.418;2022-10-31T09:56:07;4.45;;;3.55;;
62353;SDS011;48391;49.184;2.418;2022-10-31T09:58:38;5.37;;;4.00;;
62353;SDS011;48391;49.184;2.418;2022-10-31T10:01:05;3.58;;;2.85;;
62353;SDS011;48391;49.184;2.418;2022-10-31T10:06:09;1.80;;;1.63;;
62353;SDS011;48391;49.184;2.418;2022-10-31T10:08:36;1.48;;;1.38;;
62353;SDS011;48391;49.184;2.418;2022-10-31T10:13:54;2.88;;;1.92;;
62353;SDS011;48391;49.184;2.418;2022-10-31T10:19:17;5.30;;;3.10;;
62353;SDS011;48391;49.184;2.418;2022-10-31T10:24:22;3.22;;;2.83;;
62353;SDS011;48391;49.184;2.418;2022-10-31T10:29:36;5.57;;;3.28;;
62353;SDS011;48391;49.184;2.418;2022-10-31T10:32:10;3.08;;;2.78;;
62353;SDS011;48391;49.184;2.418;2022-10-31T10:34:39;6.15;;;4.00;;
62353;SDS011;48391;49.184;2.418;2022-10-31T10:37:24;4.10;;;2.45;;
62353;SDS011;48391;49.184;2.418;2022-10-31T10:39:55;4.82;;;3.03;;
62353;SDS011;48391;49.184;2.418;2022-10-31T10:42:24;5.00;;;2.83;;
62353;SDS011;48391;49.184;2.418;2022-10-31T10:45:14;2.22;;;2.03;;
62353;SDS011;48391;49.184;2.418;2022-10-31T10:48:03;3.97;;;2.65;;
62353;SDS011;48391;49.184;2.418;2022-10-31T10:50:34;5.15;;;2.53;;
62353;SDS011;48391;49.184;2.418;2022-10-31T10:53:20;4.50;;;3.28;;
62353;SDS011;48391;49.184;2.418;2022-10-31T10:55:58;8.48;;;4.47;;
62353;SDS011;48391;49.184;2.418;2022-10-31T10:58:25;8.38;;;4.00;;
62353;SDS011;48391;49.184;2.418;2022-10-31T11:00:52;7.80;;;4.15;;
62353;SDS011;48391;49.184;2.418;2022-10-31T11:03:19;5.05;;;3.25;;
62353;SDS011;48391;49.184;2.418;2022-10-31T11:05:54;3.33;;;2.83;;
62353;SDS011;48391;49.184;2.418;2022-10-31T11:08:32;2.72;;;2.47;;
62353;SDS011;48391;49.184;2.418;2022-10-31T11:11:03;1.63;;;1.52;;
62353;SDS011;48391;49.184;2.418;2022-10-31T11:13:30;2.65;;;2.20;;
62353;SDS011;48391;49.184;2.418;2022-10-31T11:16:02;1.73;;;1.63;;
62353;SDS011;48391;49.184;2.418;2022-10-31T11:18:36;3.67;;;2.22;;
62353;SDS011;48391;49.184;2.418;2022-10-31T11:21:03;2.53;;;1.88;;
62353;SDS011;48391;49.184;2.418;2022-10-31T11:23:30;2.50;;;1.80;;
62353;SDS011;48391;49.184;2.418;2022-10-31T11:28:22;1.83;;;1.73;;
62353;SDS011;48391;49.184;2.418;2022-10-31T11:30:50;1.42;;;1.27;;
62353;SDS011;48391;49.184;2.418;2022-10-31T11:33:28;3.85;;;2.55;;
62353;SDS011;48391;49.184;2.418;2022-10-31T11:35:55;3.30;;;2.72;;
62353;SDS011;48391;49.184;2.418;2022-10-31T11:38:22;4.93;;;2.58;;
62353;SDS011;48391;49.184;2.418;2022-10-31T11:40:57;7.22;;;3.00;;
62353;SDS011;48391;49.184;2.418;2022-10-31T11:43:24;3.10;;;1.95;;
62353;SDS011;48391;49.184;2.418;2022-10-31T11:45:50;3.65;;;2.80;;
62353;SDS011;48391;49.184;2.418;2022-10-31T11:48:21;6.45;;;3.63;;
62353;SDS011;48391;49.184;2.418;2022-10-31T11:50:52;4.28;;;2.00;;
62353;SDS011;48391;49.184;2.418;2022-10-31T11:53:22;4.97;;;2.20;;
62353;SDS011;48391;49.184;2.418;2022-10-31T11:55:59;2.47;;;1.95;;
62353;SDS011;48391;49.184;2.418;2022-10-31T11:58:26;5.22;;;2.90;;
62353;SDS011;48391;49.184;2.418;2022-10-31T12:00:53;3.80;;;2.63;;
62353;SDS011;48391;49.184;2.418;2022-10-31T12:05:51;3.03;;;2.83;;
62353;SDS011;48391;49.184;2.418;2022-10-31T12:17:25;2.50;;;2.17;;
62353;SDS011;48391;49.184;2.418;2022-10-31T12:19:22;5.95;;;3.00;;
62353;SDS011;48391;49.184;2.418;2022-10-31T12:22:02;2.70;;;1.77;;
62353;SDS011;48391;49.184;2.418;2022-10-31T12:33:01;2.80;;;2.42;;
62353;SDS011;48391;49.184;2.418;2022-10-31T12:43:30;6.15;;;3.00;;
62353;SDS011;48391;49.184;2.418;2022-10-31T12:46:00;4.65;;;2.88;;
62353;SDS011;48391;49.184;2.418;2022-10-31T12:48:50;6.72;;;3.08;;
62353;SDS011;48391;49.184;2.418;2022-10-31T13:04:35;7.05;;;3.25;;
62353;SDS011;48391;49.184;2.418;2022-10-31T13:07:00;4.82;;;2.78;;
62353;SDS011;48391;49.184;2.418;2022-10-31T13:09:36;4.85;;;2.60;;
62353;SDS011;48391;49.184;2.418;2022-10-31T13:12:08;5.25;;;2.92;;
62353;SDS011;48391;49.184;2.418;2022-10-31T13:17:02;2.97;;;2.58;;
62353;SDS011;48391;49.184;2.418;2022-10-31T13:19:30;3.30;;;2.97;;
62353;SDS011;48391;49.184;2.418;2022-10-31T13:21:58;6.78;;;2.92;;
62353;SDS011;48391;49.184;2.418;2022-10-31T13:24:46;5.15;;;3.15;;
62353;SDS011;48391;49.184;2.418;2022-10-31T13:27:17;4.65;;;2.92;;
62353;SDS011;48391;49.184;2.418;2022-10-31T13:30:01;4.80;;;3.22;;
62353;SDS011;48391;49.184;2.418;2022-10-31T13:32:29;4.30;;;2.88;;
62353;SDS011;48391;49.184;2.418;2022-10-31T13:35:01;6.85;;;4.03;;
62353;SDS011;48391;49.184;2.418;2022-10-31T13:37:33;3.15;;;2.85;;
62353;SDS011;48391;49.184;2.418;2022-10-31T13:47:40;7.38;;;3.22;;
62353;SDS011;48391;49.184;2.418;2022-10-31T13:50:21;4.78;;;3.33;;
62353;SDS011;48391;49.184;2.418;2022-10-31T13:52:47;6.13;;;2.20;;
62353;SDS011;48391;49.184;2.418;2022-10-31T13:57:58;3.95;;;2.58;;
62353;SDS011;48391;49.184;2.418;2022-10-31T14:00:24;7.97;;;3.33;;
62353;SDS011;48391;49.184;2.418;2022-10-31T14:02:51;9.18;;;4.47;;
62353;SDS011;48391;49.184;2.418;2022-10-31T14:07:45;6.38;;;3.17;;
62353;SDS011;48391;49.184;2.418;2022-10-31T14:10:27;4.32;;;2.10;;
62353;SDS011;48391;49.184;2.418;2022-10-31T14:13:15;6.07;;;2.97;;
62353;SDS011;48391;49.184;2.418;2022-10-31T14:15:41;4.20;;;2.53;;
62353;SDS011;48391;49.184;2.418;2022-10-31T14:18:18;4.07;;;2.38;;
62353;SDS011;48391;49.184;2.418;2022-10-31T14:20:45;5.15;;;3.05;;
62353;SDS011;48391;49.184;2.418;2022-10-31T14:25:50;5.55;;;2.95;;
62353;SDS011;48391;49.184;2.418;2022-10-31T14:30:55;7.07;;;3.00;;
62353;SDS011;48391;49.184;2.418;2022-10-31T14:33:22;3.38;;;2.50;;
62353;SDS011;48391;49.184;2.418;2022-10-31T14:38:48;6.82;;;2.95;;
62353;SDS011;48391;49.184;2.418;2022-10-31T14:41:16;5.78;;;3.17;;
62353;SDS011;48391;49.184;2.418;2022-10-31T14:51:23;4.40;;;2.50;;
62353;SDS011;48391;49.184;2.418;2022-10-31T14:53:52;5.20;;;2.80;;
62353;SDS011;48391;49.184;2.418;2022-10-31T14:56:43;4.68;;;2.72;;
62353;SDS011;48391;49.184;2.418;2022-10-31T14:59:09;5.07;;;2.92;;
62353;SDS011;48391;49.184;2.418;2022-10-31T15:01:38;3.90;;;2.42;;
62353;SDS011;48391;49.184;2.418;2022-10-31T15:04:17;5.38;;;3.90;;
62353;SDS011;48391;49.184;2.418;2022-10-31T15:06:47;7.55;;;3.42;;
62353;SDS011;48391;49.184;2.418;2022-10-31T15:11:41;8.65;;;4.55;;
62353;SDS011;48391;49.184;2.418;2022-10-31T15:14:17;9.95;;;4.28;;
62353;SDS011;48391;49.184;2.418;2022-10-31T15:16:47;6.00;;;3.72;;
62353;SDS011;48391;49.184;2.418;2022-10-31T15:19:15;7.50;;;3.80;;
62353;SDS011;48391;49.184;2.418;2022-10-31T15:21:43;8.37;;;3.97;;
62353;SDS011;48391;49.184;2.418;2022-10-31T15:26:42;5.05;;;2.45;;
62353;SDS011;48391;49.184;2.418;2022-10-31T15:29:13;6.43;;;4.07;;
62353;SDS011;48391;49.184;2.418;2022-10-31T15:31:56;6.05;;;3.17;;
62353;SDS011;48391;49.184;2.418;2022-10-31T15:34:41;4.20;;;3.03;;
62353;SDS011;48391;49.184;2.418;2022-10-31T15:37:11;4.97;;;3.30;;
62353;SDS011;48391;49.184;2.418;2022-10-31T15:39:38;12.07;;;4.47;;
62353;SDS011;48391;49.184;2.418;2022-10-31T15:42:13;5.13;;;2.80;;
62353;SDS011;48391;49.184;2.418;2022-10-31T15:44:40;10.50;;;2.97;;
62353;SDS011;48391;49.184;2.418;2022-10-31T15:47:18;4.13;;;2.75;;
62353;SDS011;48391;49.184;2.418;2022-10-31T15:52:58;6.38;;;3.25;;
62353;SDS011;48391;49.184;2.418;2022-10-31T15:55:00;8.15;;;3.03;;
62353;SDS011;48391;49.184;2.418;2022-10-31T15:57:27;4.50;;;2.50;;
62353;SDS011;48391;49.184;2.418;2022-10-31T15:59:54;4.45;;;2.45;;
62353;SDS011;48391;49.184;2.418;2022-10-31T16:02:24;1.63;;;1.52;;
62353;SDS011;48391;49.184;2.418;2022-10-31T16:07:17;1.95;;;1.60;;
62353;SDS011;48391;49.184;2.418;2022-10-31T16:09:50;2.03;;;1.48;;
62353;SDS011;48391;49.184;2.418;2022-10-31T16:12:16;3.72;;;2.00;;
62353;SDS011;48391;49.184;2.418;2022-10-31T16:14:42;4.68;;;2.58;;
62353;SDS011;48391;49.184;2.418;2022-10-31T16:17:15;2.65;;;2.03;;
62353;SDS011;48391;49.184;2.418;2022-10-31T16:22:18;1.40;;;1.25;;
62353;SDS011;48391;49.184;2.418;2022-10-31T16:24:49;5.30;;;3.38;;
62353;SDS011;48391;49.184;2.418;2022-10-31T16:27:20;3.88;;;2.75;;
62353;SDS011;48391;49.184;2.418;2022-10-31T16:29:50;4.50;;;2.53;;
62353;SDS011;48391;49.184;2.418;2022-10-31T16:32:27;3.20;;;2.53;;
62353;SDS011;48391;49.184;2.418;2022-10-31T16:34:58;2.25;;;1.75;;
62353;SDS011;48391;49.184;2.418;2022-10-31T16:37:24;3.53;;;1.67;;
62353;SDS011;48391;49.184;2.418;2022-10-31T16:39:50;2.75;;;1.70;;
62353;SDS011;48391;49.184;2.418;2022-10-31T16:42:16;5.15;;;2.58;;
62353;SDS011;48391;49.184;2.418;2022-10-31T16:44:43;4.15;;;2.28;;
62353;SDS011;48391;49.184;2.418;2022-10-31T16:47:13;2.53;;;2.10;;
62353;SDS011;48391;49.184;2.418;2022-10-31T16:49:40;2.38;;;1.88;;
62353;SDS011;48391;49.184;2.418;2022-10-31T16:52:07;6.05;;;2.22;;
62353;SDS011;48391;49.184;2.418;2022-10-31T16:54:33;9.38;;;3.08;;
62353;SDS011;48391;49.184;2.418;2022-10-31T16:56:59;6.28;;;3.70;;
62353;SDS011;48391;49.184;2.418;2022-10-31T16:59:26;4.50;;;1.75;;
62353;SDS011;48391;49.184;2.418;2022-10-31T17:01:52;5.22;;;2.58;;
62353;SDS011;48391;49.184;2.418;2022-10-31T17:04:18;3.58;;;2.58;;
62353;SDS011;48391;49.184;2.418;2022-10-31T17:06:44;9.40;;;2.92;;
62353;SDS011;48391;49.184;2.418;2022-10-31T17:09:10;4.53;;;2.35;;
62353;SDS011;48391;49.184;2.418;2022-10-31T17:11:36;3.97;;;1.85;;